Festivo — EAEQ — position and weather

sailwx.info

Track history (hours):
 
Tides and Currents Weather Stations Pressure Air Temp Water Temp Dewpoint Dewpoint Depression Visibility Wind Speed Wind Dir Waves Ship Positions

Festivo

Last reported at 2014-Oct-02 11:34 UTC. Time now 2014-Oct-02 12:26 UTC.
Position N 35°55' W 005°18'.

Length 136 m; draft 3.5 m.

Type: Cargo ship. MMSI: 225410000.

Date/timePositionNaut miles runAvg speedWind from/ knotsBaromVisibWave heightAir tempDewpointWater temp
2014-Oct-02 11:34N 35°55' W 005°18'1 1.3
2014-Oct-02 10:29N 35°54' W 005°19'0 0.0
2014-Oct-02 09:32N 35°54' W 005°19'0 0.0
2014-Oct-02 08:33N 35°54' W 005°19'4 0.1
2014-Sep-30 08:33N 35°57' W 005°16'4 3.7
2014-Sep-30 07:31N 35°54' W 005°19'0 0.0
2014-Sep-30 06:31N 35°54' W 005°19'0 0.0
2014-Sep-30 05:31N 35°54' W 005°19'1 0.8
2014-Sep-30 04:34N 35°54' W 005°19'  
2014-Sep-27 15:26N 35°56' W 005°17'3 3.2
2014-Sep-27 14:32N 35°54' W 005°19'0 0.0
2014-Sep-27 13:32N 35°54' W 005°19'0 0.0
2014-Sep-27 12:32N 35°54' W 005°19'0 0.0
2014-Sep-27 11:32N 35°54' W 005°19'0 0.0
2014-Sep-27 10:32N 35°54' W 005°19'0 0.0
2014-Sep-27 09:32N 35°54' W 005°19'0 0.0
2014-Sep-27 08:32N 35°54' W 005°19'0 0.0
2014-Sep-27 07:32N 35°54' W 005°19'1 0.8
2014-Sep-27 06:34N 35°54' W 005°19'0 0.0
2014-Sep-25 10:33N 35°54' W 005°18'1 0.9
2014-Sep-25 09:33N 35°54' W 005°19'0 0.0
2014-Sep-25 08:33N 35°54' W 005°19'1 0.7
2014-Sep-25 07:33N 35°54' W 005°19'1 0.0
2014-Sep-23 08:33N 35°55' W 005°18'1 1.3
2014-Sep-23 07:32N 35°54' W 005°19'0 0.0
2014-Sep-23 06:32N 35°54' W 005°19'0 0.0
2014-Sep-23 05:32N 35°54' W 005°19'0 0.4
2014-Sep-23 04:34N 35°54' W 005°19'  
Track history (hours):
 
Tides and Currents Weather Stations Pressure Air Temp Water Temp Dewpoint Dewpoint Depression Visibility Wind Speed Wind Dir Waves Ship Positions

Festivo

Last reported at 2014-Oct-02 11:34 UTC. Time now 2014-Oct-02 12:26 UTC.
Position N 35°55' W 005°18'.

Length 136 m; draft 3.5 m.

Type: Cargo ship. MMSI: 225410000.

Date/timePositionNaut miles runAvg speedWind from/ knotsBaromVisibWave heightAir tempDewpointWater temp
2014-Oct-02 11:34N 35°55' W 005°18'1 1.3
2014-Oct-02 10:29N 35°54' W 005°19'0 0.0
2014-Oct-02 09:32N 35°54' W 005°19'0 0.0
2014-Oct-02 08:33N 35°54' W 005°19'4 0.1
2014-Sep-30 08:33N 35°57' W 005°16'4 3.7
2014-Sep-30 07:31N 35°54' W 005°19'0 0.0
2014-Sep-30 06:31N 35°54' W 005°19'0 0.0
2014-Sep-30 05:31N 35°54' W 005°19'1 0.8
2014-Sep-30 04:34N 35°54' W 005°19'  
2014-Sep-27 15:26N 35°56' W 005°17'3 3.2
2014-Sep-27 14:32N 35°54' W 005°19'0 0.0
2014-Sep-27 13:32N 35°54' W 005°19'0 0.0
2014-Sep-27 12:32N 35°54' W 005°19'0 0.0
2014-Sep-27 11:32N 35°54' W 005°19'0 0.0
2014-Sep-27 10:32N 35°54' W 005°19'0 0.0
2014-Sep-27 09:32N 35°54' W 005°19'0 0.0
2014-Sep-27 08:32N 35°54' W 005°19'0 0.0
2014-Sep-27 07:32N 35°54' W 005°19'1 0.8
2014-Sep-27 06:34N 35°54' W 005°19'0 0.0
2014-Sep-25 10:33N 35°54' W 005°18'1 0.9
2014-Sep-25 09:33N 35°54' W 005°19'0 0.0
2014-Sep-25 08:33N 35°54' W 005°19'1 0.7
2014-Sep-25 07:33N 35°54' W 005°19'1 0.0
2014-Sep-23 08:33N 35°55' W 005°18'1 1.3
2014-Sep-23 07:32N 35°54' W 005°19'0 0.0
2014-Sep-23 06:32N 35°54' W 005°19'0 0.0
2014-Sep-23 05:32N 35°54' W 005°19'0 0.4
2014-Sep-23 04:34N 35°54' W 005°19'  

Dump ship's entire track history